Time;durP1;ratioP1;P1;durP2;ratioP2;P2;SDS_P1;SDS_P2;PMS_P1;PMS_P2;Temp;Humidity;BMP_temperature;BMP_pressure;BME280_temperature;BME280_humidity;BME280_pressure;Samples;Min_cycle;Max_cycle;Signal;HPM_P1;HPM_P2
2023/06/18 00:01:25;;;;;;;;;;;;;;;;;;5133984;27;20000;-65
2023/06/18 00:06:30;;;;;;;;;;;;;;;;;;5091365;27;19912;-63
2023/06/18 00:08:56;;;;;;;;;;;;;;;;;;5091412;28;19951;-63
2023/06/18 00:17:46;;;;;;;;;;;;;;;;;;5153489;27;19945;-63
2023/06/18 00:20:12;;;;;;;;;;;;;;;;;;5153232;27;19911;-63
2023/06/18 00:22:38;;;;;;;;;;;;;;;;;;5152519;27;20382;-63
2023/06/18 00:25:05;;;;;;;;;;;;;;;;;;5152866;27;20286;-63
2023/06/18 00:27:31;;;;;;;;;;;;;;;;;;5152456;27;19998;-63
2023/06/18 00:29:57;;;;;;;;;;;;;;;;;;5152767;27;19955;-63
2023/06/18 00:32:23;;;;;;;;;;;;;;;;;;5152804;27;19918;-63
2023/06/18 00:37:43;;;;;;;;;;;;;;;;;;5111857;27;20291;-62
2023/06/18 00:40:36;;;;;;;;;;;;;;;;;;5132225;27;20014;-63
2023/06/18 00:43:03;;;;;;;;;;;;;;;;;;5131803;28;20305;-63
2023/06/18 00:47:26;;;;;;;;;;;;;;;;;;5092252;27;19917;-63
2023/06/18 00:49:55;;;;;;;;;;;;;;;;;;5089709;28;20369;-63
2023/06/18 00:52:23;;;;;;;;;;;;;;;;;;5091327;28;19938;-63
2023/06/18 00:54:49;;;;;;;;;;;;;;;;;;5091450;28;19961;-63
2023/06/18 00:57:17;;;;;;;;;;;;;;;;;;5090759;28;19912;-63
2023/06/18 01:05:19;;;;;;;;;;;;;;;;;;5092262;28;19939;-63
2023/06/18 01:11:37;;;;;;;;;;;;;;;;;;5111517;27;19922;-62
2023/06/18 01:18:50;;;;;;;;;;;;;;;;;;5152820;27;20385;-64
2023/06/18 01:21:18;;;;;;;;;;;;;;;;;;5153433;27;20279;-63
2023/06/18 01:23:49;;;;;;;;;;;;;;;;;;5152458;27;20267;-63
2023/06/18 01:26:15;;;;;;;;;;;;;;;;;;5152934;27;20346;-63
2023/06/18 01:28:41;;;;;;;;;;;;;;;;;;5152814;27;19938;-63
2023/06/18 01:31:38;;;;;;;;;;;;;;;;;;5111471;27;19915;-62
2023/06/18 01:36:47;;;;;;;;;;;;;;;;;;5152927;27;19918;-63
2023/06/18 01:40:06;;;;;;;;;;;;;;;;;;5112030;27;19916;-63
2023/06/18 01:42:32;;;;;;;;;;;;;;;;;;5111752;28;19918;-63
2023/06/18 01:44:58;;;;;;;;;;;;;;;;;;5111258;28;19979;-63
2023/06/18 01:47:26;;;;;;;;;;;;;;;;;;5111682;28;19912;-63
2023/06/18 01:52:48;;;;;;;;;;;;;;;;;;5111452;27;20402;-62
2023/06/18 01:55:14;;;;;;;;;;;;;;;;;;5111935;28;19995;-63
2023/06/18 01:57:40;;;;;;;;;;;;;;;;;;5110463;28;19931;-63
2023/06/18 02:00:07;;;;;;;;;;;;;;;;;;5111434;28;19907;-63
2023/06/18 02:02:32;;;;;;;;;;;;;;;;;;5111699;28;19908;-63
2023/06/18 02:04:58;;;;;;;;;;;;;;;;;;5110347;28;19908;-63
2023/06/18 02:07:24;;;;;;;;;;;;;;;;;;5111162;28;20279;-63
2023/06/18 02:09:50;;;;;;;;;;;;;;;;;;5110184;28;19985;-63
2023/06/18 02:12:16;;;;;;;;;;;;;;;;;;5111582;28;19923;-63
2023/06/18 02:14:42;;;;;;;;;;;;;;;;;;5111032;28;19915;-63
2023/06/18 02:19:44;;;;;;;;;;;;;;;;;;5111995;27;19916;-63
2023/06/18 02:22:26;;;;;;;;;;;;;;;;;;5091665;28;19916;-63
2023/06/18 02:24:52;;;;;;;;;;;;;;;;;;5091407;28;19920;-63
2023/06/18 02:28:44;;;;;;;;;;;;;;;;;;5111558;27;19912;-63
2023/06/18 02:35:04;;;;;;;;;;;;;;;;;;5111484;27;19922;-63
2023/06/18 02:37:31;;;;;;;;;;;;;;;;;;5110477;28;19912;-63
2023/06/18 02:39:57;;;;;;;;;;;;;;;;;;5110714;28;19957;-63
2023/06/18 02:42:23;;;;;;;;;;;;;;;;;;5111246;28;19910;-63
2023/06/18 02:44:49;;;;;;;;;;;;;;;;;;5111638;28;20006;-63
2023/06/18 02:48:00;;;;;;;;;;;;;;;;;;5071547;28;19913;-64
2023/06/18 02:50:26;;;;;;;;;;;;;;;;;;5071216;28;19960;-62
2023/06/18 02:53:59;;;;;;;;;;;;;;;;;;5112607;27;19922;-63
2023/06/18 02:56:57;;;;;;;;;;;;;;;;;;5111527;27;20375;-64
2023/06/18 02:59:23;;;;;;;;;;;;;;;;;;5111785;28;20006;-64
2023/06/18 03:04:12;;;;;;;;;;;;;;;;;;5111485;27;20291;-64
2023/06/18 03:07:31;;;;;;;;;;;;;;;;;;5153211;27;20006;-64
2023/06/18 03:09:57;;;;;;;;;;;;;;;;;;5152518;27;19942;-64
2023/06/18 03:12:24;;;;;;;;;;;;;;;;;;5153334;27;19973;-62
2023/06/18 03:14:50;;;;;;;;;;;;;;;;;;5134300;27;19934;-64
2023/06/18 03:19:14;;;;;;;;;;;;;;;;;;5111858;27;19916;-65
2023/06/18 03:22:29;;;;;;;;;;;;;;;;;;5132441;27;20049;-62
2023/06/18 03:24:56;;;;;;;;;;;;;;;;;;5131823;28;19973;-63
2023/06/18 03:27:36;;;;;;;;;;;;;;;;;;5112435;27;19916;-64
2023/06/18 03:30:03;;;;;;;;;;;;;;;;;;5111815;28;20002;-64
2023/06/18 03:33:29;;;;;;;;;;;;;;;;;;5152965;27;20002;-62
2023/06/18 03:35:55;;;;;;;;;;;;;;;;;;5134480;27;20264;-63
2023/06/18 03:38:21;;;;;;;;;;;;;;;;;;5133957;27;19913;-63
2023/06/18 03:40:47;;;;;;;;;;;;;;;;;;5134301;27;19907;-63
2023/06/18 03:45:12;;;;;;;;;;;;;;;;;;5091480;27;19939;-64
2023/06/18 03:50:12;;;;;;;;;;;;;;;;;;5111819;27;19915;-62
2023/06/18 03:52:38;;;;;;;;;;;;;;;;;;5111378;28;19912;-63
2023/06/18 03:57:10;;;;;;;;;;;;;;;;;;5111926;27;19916;-63
2023/06/18 04:02:23;;;;;;;;;;;;;;;;;;5112360;27;19916;-63
2023/06/18 04:04:49;;;;;;;;;;;;;;;;;;5111793;28;20354;-63
2023/06/18 04:07:15;;;;;;;;;;;;;;;;;;5111279;28;19908;-63
2023/06/18 04:09:41;;;;;;;;;;;;;;;;;;5112107;28;19916;-63
2023/06/18 04:12:07;;;;;;;;;;;;;;;;;;5111966;28;19908;-63
2023/06/18 04:14:36;;;;;;;;;;;;;;;;;;5111214;28;20003;-63
2023/06/18 04:18:56;;;;;;;;;;;;;;;;;;5112381;27;19923;-64
2023/06/18 04:22:12;;;;;;;;;;;;;;;;;;5112263;27;19916;-63
2023/06/18 04:24:38;;;;;;;;;;;;;;;;;;5111800;28;19919;-64
2023/06/18 04:27:58;;;;;;;;;;;;;;;;;;5111744;27;19916;-63
2023/06/18 04:30:24;;;;;;;;;;;;;;;;;;5111772;28;20337;-63
2023/06/18 04:32:50;;;;;;;;;;;;;;;;;;5111888;28;19916;-63
2023/06/18 04:37:22;;;;;;;;;;;;;;;;;;5112022;27;19916;-62
2023/06/18 04:40:00;;;;;;;;;;;;;;;;;;5091521;27;20287;-63
2023/06/18 04:43:38;;;;;;;;;;;;;;;;;;5112136;27;19922;-65
2023/06/18 04:46:04;;;;;;;;;;;;;;;;;;5111808;28;20329;-63
2023/06/18 04:48:31;;;;;;;;;;;;;;;;;;5111253;28;19994;-63
2023/06/18 04:50:58;;;;;;;;;;;;;;;;;;5111975;28;20359;-63
2023/06/18 04:53:54;;;;;;;;;;;;;;;;;;5153590;27;20026;-64
2023/06/18 04:56:20;;;;;;;;;;;;;;;;;;5152562;27;19973;-63
2023/06/18 04:58:46;;;;;;;;;;;;;;;;;;5152891;27;19907;-64
2023/06/18 05:01:12;;;;;;;;;;;;;;;;;;5152833;27;19930;-63
2023/06/18 05:05:41;;;;;;;;;;;;;;;;;;5112537;27;19916;-62
2023/06/18 05:09:00;;;;;;;;;;;;;;;;;;5111520;27;19919;-63
2023/06/18 05:15:11;;;;;;;;;;;;;;;;;;5112402;27;19915;-63
2023/06/18 05:17:37;;;;;;;;;;;;;;;;;;5111341;28;19919;-64
2023/06/18 05:20:06;;;;;;;;;;;;;;;;;;5110419;28;19912;-63
2023/06/18 05:27:00;;;;;;;;;;;;;;;;;;5153244;27;20014;-64
2023/06/18 05:29:26;;;;;;;;;;;;;;;;;;5152962;27;19946;-63
2023/06/18 05:33:56;;;;;;;;;;;;;;;;;;5092013;27;20303;-64
2023/06/18 05:36:22;;;;;;;;;;;;;;;;;;5091650;28;19920;-65
2023/06/18 05:41:02;;;;;;;;;;;;;;;;;;5091713;27;19916;-65
2023/06/18 05:47:51;;;;;;;;;;;;;;;;;;5112599;27;20278;-64
2023/06/18 05:51:27;;;;;;;;;;;;;;;;;;5091523;27;19912;-64
2023/06/18 05:53:53;;;;;;;;;;;;;;;;;;5091417;28;20352;-64
2023/06/18 05:56:19;;;;;;;;;;;;;;;;;;5091363;28;19915;-64
2023/06/18 06:02:51;;;;;;;;;;;;;;;;;;5092234;27;19912;-64
2023/06/18 06:05:17;;;;;;;;;;;;;;;;;;5091143;28;19919;-64
2023/06/18 06:07:43;;;;;;;;;;;;;;;;;;5091610;28;19908;-64
2023/06/18 06:10:10;;;;;;;;;;;;;;;;;;5091305;28;20353;-64
2023/06/18 06:12:36;;;;;;;;;;;;;;;;;;5089577;28;19908;-64
2023/06/18 06:16:10;;;;;;;;;;;;;;;;;;5111826;27;19923;-63
2023/06/18 06:25:50;;;;;;;;;;;;;;;;;;5112163;27;19916;-63
2023/06/18 06:29:03;;;;;;;;;;;;;;;;;;5112074;27;19923;-62
2023/06/18 06:33:40;;;;;;;;;;;;;;;;;;5111911;27;19912;-64
2023/06/18 06:43:27;;;;;;;;;;;;;;;;;;5174122;27;20006;-63
2023/06/18 06:47:58;;;;;;;;;;;;;;;;;;5091464;27;19916;-64
2023/06/18 06:52:18;;;;;;;;;;;;;;;;;;5091577;27;19913;-64
2023/06/18 06:54:44;;;;;;;;;;;;;;;;;;5089676;28;20425;-63
2023/06/18 06:57:10;;;;;;;;;;;;;;;;;;5091353;28;19958;-63
2023/06/18 06:59:36;;;;;;;;;;;;;;;;;;5090027;28;19915;-64
2023/06/18 07:02:18;;;;;;;;;;;;;;;;;;5051087;28;19923;-65
2023/06/18 07:04:47;;;;;;;;;;;;;;;;;;5051237;28;19919;-64
2023/06/18 07:07:32;;;;;;;;;;;;;;;;;;5112399;27;19916;-62
2023/06/18 07:09:58;;;;;;;;;;;;;;;;;;5110129;28;20006;-65
2023/06/18 07:13:36;;;;;;;;;;;;;;;;;;5112186;27;19922;-63
2023/06/18 07:16:47;;;;;;;;;;;;;;;;;;5111606;27;19916;-64
2023/06/18 07:19:13;;;;;;;;;;;;;;;;;;5110372;28;19965;-64
2023/06/18 07:21:39;;;;;;;;;;;;;;;;;;5112019;28;19908;-64
2023/06/18 07:29:19;;;;;;;;;;;;;;;;;;5111601;27;19923;-65
2023/06/18 07:31:46;;;;;;;;;;;;;;;;;;5110767;28;20002;-65
2023/06/18 07:37:04;;;;;;;;;;;;;;;;;;5091608;27;19923;-63
2023/06/18 07:39:30;;;;;;;;;;;;;;;;;;5091418;28;19919;-63
2023/06/18 07:42:08;;;;;;;;;;;;;;;;;;5091482;27;19923;-62
2023/06/18 07:44:55;;;;;;;;;;;;;;;;;;5111496;27;19922;-62
2023/06/18 07:47:21;;;;;;;;;;;;;;;;;;5111674;28;19912;-62
2023/06/18 07:49:47;;;;;;;;;;;;;;;;;;5111583;28;19953;-63
2023/06/18 07:52:12;;;;;;;;;;;;;;;;;;5111276;28;20372;-63
2023/06/18 07:54:38;;;;;;;;;;;;;;;;;;5111593;28;20413;-63
2023/06/18 08:00:59;;;;;;;;;;;;;;;;;;5112059;27;20283;-63
2023/06/18 08:03:25;;;;;;;;;;;;;;;;;;5110472;28;19912;-63
2023/06/18 08:05:51;;;;;;;;;;;;;;;;;;5111226;28;19973;-63
2023/06/18 08:11:15;;;;;;;;;;;;;;;;;;5112074;27;19916;-62
2023/06/18 08:13:41;;;;;;;;;;;;;;;;;;5111414;28;20375;-62
2023/06/18 08:16:07;;;;;;;;;;;;;;;;;;5110416;28;19965;-62
2023/06/18 08:19:44;;;;;;;;;;;;;;;;;;5111823;27;19916;-63
2023/06/18 08:24:31;;;;;;;;;;;;;;;;;;5112596;27;19916;-63
2023/06/18 08:29:05;;;;;;;;;;;;;;;;;;5112135;27;19922;-62
2023/06/18 08:33:12;;;;;;;;;;;;;;;;;;5091577;27;20291;-65
2023/06/18 08:37:35;;;;;;;;;;;;;;;;;;5112474;27;19916;-64
2023/06/18 08:40:02;;;;;;;;;;;;;;;;;;5111356;28;19912;-64
2023/06/18 08:48:51;;;;;;;;;;;;;;;;;;5111456;27;19922;-63
2023/06/18 08:51:49;;;;;;;;;;;;;;;;;;5112601;27;19922;-65
2023/06/18 08:55:15;;;;;;;;;;;;;;;;;;5111636;27;20310;-63
2023/06/18 08:57:41;;;;;;;;;;;;;;;;;;5110538;28;19916;-63
2023/06/18 09:05:03;;;;;;;;;;;;;;;;;;5091791;28;19912;-64
2023/06/18 09:07:49;;;;;;;;;;;;;;;;;;5111897;27;20303;-62
2023/06/18 09:10:15;;;;;;;;;;;;;;;;;;5112210;28;20002;-62
2023/06/18 09:12:41;;;;;;;;;;;;;;;;;;5110430;28;20325;-65
2023/06/18 09:16:43;;;;;;;;;;;;;;;;;;5111412;27;20394;-63
2023/06/18 09:24:16;;;;;;;;;;;;;;;;;;5153361;27;19912;-62
2023/06/18 09:26:42;;;;;;;;;;;;;;;;;;5152888;27;20302;-63
2023/06/18 09:29:08;;;;;;;;;;;;;;;;;;5152755;27;19907;-62
2023/06/18 09:34:46;;;;;;;;;;;;;;;;;;5112188;27;19919;-63
2023/06/18 09:37:12;;;;;;;;;;;;;;;;;;5111292;28;20011;-62
2023/06/18 09:43:37;;;;;;;;;;;;;;;;;;5111835;27;19912;-64
2023/06/18 09:46:03;;;;;;;;;;;;;;;;;;5111777;28;20010;-64
2023/06/18 09:49:50;;;;;;;;;;;;;;;;;;5112299;27;19916;-62
2023/06/18 09:52:16;;;;;;;;;;;;;;;;;;5111357;28;19912;-63
2023/06/18 09:55:07;;;;;;;;;;;;;;;;;;5112162;27;19916;-64
2023/06/18 09:57:33;;;;;;;;;;;;;;;;;;5111316;28;20340;-63
2023/06/18 09:59:59;;;;;;;;;;;;;;;;;;5110314;28;19962;-63
2023/06/18 10:02:51;;;;;;;;;;;;;;;;;;5153054;27;20290;-62
2023/06/18 10:05:17;;;;;;;;;;;;;;;;;;5152705;27;20346;-63
2023/06/18 10:07:42;;;;;;;;;;;;;;;;;;5152865;27;19943;-63
2023/06/18 10:11:40;;;;;;;;;;;;;;;;;;5111623;27;20299;-62
2023/06/18 10:14:06;;;;;;;;;;;;;;;;;;5111892;28;19913;-63
2023/06/18 10:17:23;;;;;;;;;;;;;;;;;;5112151;27;19922;-62
2023/06/18 10:19:48;;;;;;;;;;;;;;;;;;5111359;28;19912;-62
2023/06/18 10:22:14;;;;;;;;;;;;;;;;;;5111935;28;19996;-62
2023/06/18 10:29:53;;;;;;;;;;;;;;;;;;5111891;27;19916;-63
2023/06/18 10:32:19;;;;;;;;;;;;;;;;;;5109999;28;20275;-63
2023/06/18 10:34:45;;;;;;;;;;;;;;;;;;5111657;28;19909;-63
2023/06/18 10:37:11;;;;;;;;;;;;;;;;;;5111986;28;20337;-63
2023/06/18 10:39:55;;;;;;;;;;;;;;;;;;5111920;27;19912;-63
2023/06/18 10:42:21;;;;;;;;;;;;;;;;;;5111662;28;19999;-63
2023/06/18 10:44:47;;;;;;;;;;;;;;;;;;5110265;28;19908;-63
2023/06/18 10:47:13;;;;;;;;;;;;;;;;;;5109897;28;19918;-63
2023/06/18 10:49:39;;;;;;;;;;;;;;;;;;5111511;28;19915;-63
2023/06/18 10:52:05;;;;;;;;;;;;;;;;;;5111529;28;19908;-63
2023/06/18 10:54:31;;;;;;;;;;;;;;;;;;5109768;28;19937;-63
2023/06/18 10:56:57;;;;;;;;;;;;;;;;;;5110168;28;19908;-63
2023/06/18 10:59:22;;;;;;;;;;;;;;;;;;5111371;28;19919;-63
2023/06/18 11:01:48;;;;;;;;;;;;;;;;;;5110866;28;19934;-63
2023/06/18 11:04:14;;;;;;;;;;;;;;;;;;5111261;28;19908;-63
2023/06/18 11:06:40;;;;;;;;;;;;;;;;;;5111240;28;20037;-63
2023/06/18 11:09:06;;;;;;;;;;;;;;;;;;5110798;28;19908;-63
2023/06/18 11:11:33;;;;;;;;;;;;;;;;;;5111174;28;19919;-63
2023/06/18 11:13:59;;;;;;;;;;;;;;;;;;5109835;28;19965;-63
2023/06/18 11:18:26;;;;;;;;;;;;;;;;;;5111740;27;19923;-63
2023/06/18 11:22:39;;;;;;;;;;;;;;;;;;5152781;27;20379;-64
2023/06/18 11:25:05;;;;;;;;;;;;;;;;;;5151631;27;19911;-64
2023/06/18 11:27:31;;;;;;;;;;;;;;;;;;5152814;27;20006;-64
2023/06/18 11:29:57;;;;;;;;;;;;;;;;;;5152509;27;19941;-64
2023/06/18 11:32:23;;;;;;;;;;;;;;;;;;5152749;27;19907;-65
2023/06/18 11:34:49;;;;;;;;;;;;;;;;;;5151271;27;20028;-64
2023/06/18 11:37:15;;;;;;;;;;;;;;;;;;5152305;27;19911;-64
2023/06/18 11:39:41;;;;;;;;;;;;;;;;;;5152648;27;19914;-64
2023/06/18 11:42:07;;;;;;;;;;;;;;;;;;5151229;27;19915;-64
2023/06/18 11:44:33;;;;;;;;;;;;;;;;;;5150868;27;19914;-64
2023/06/18 11:46:59;;;;;;;;;;;;;;;;;;5152814;27;19907;-64
2023/06/18 11:49:25;;;;;;;;;;;;;;;;;;5152759;27;19961;-64
2023/06/18 11:51:50;;;;;;;;;;;;;;;;;;5151940;27;20000;-64
2023/06/18 11:54:16;;;;;;;;;;;;;;;;;;5152352;27;19908;-64
2023/06/18 11:56:45;;;;;;;;;;;;;;;;;;5151856;27;19976;-65
2023/06/18 11:59:11;;;;;;;;;;;;;;;;;;5152222;27;19907;-64
2023/06/18 12:01:37;;;;;;;;;;;;;;;;;;5152409;27;19919;-64
2023/06/18 12:04:03;;;;;;;;;;;;;;;;;;5151756;27;19915;-65
2023/06/18 12:06:29;;;;;;;;;;;;;;;;;;5150878;27;20343;-65
2023/06/18 12:08:55;;;;;;;;;;;;;;;;;;5152205;27;19908;-65
2023/06/18 12:11:23;;;;;;;;;;;;;;;;;;5150297;27;19911;-67
2023/06/18 12:13:52;;;;;;;;;;;;;;;;;;5152051;27;19943;-64
2023/06/18 12:16:21;;;;;;;;;;;;;;;;;;5152012;27;19911;-65
2023/06/18 12:18:48;;;;;;;;;;;;;;;;;;5151491;27;19911;-64
2023/06/18 12:21:14;;;;;;;;;;;;;;;;;;5151735;27;19919;-64
2023/06/18 12:23:40;;;;;;;;;;;;;;;;;;5151803;27;19907;-64
2023/06/18 12:26:06;;;;;;;;;;;;;;;;;;5151408;27;19914;-64
2023/06/18 12:28:33;;;;;;;;;;;;;;;;;;5151695;27;19907;-64
2023/06/18 12:30:59;;;;;;;;;;;;;;;;;;5151742;27;20006;-65
2023/06/18 12:33:25;;;;;;;;;;;;;;;;;;5140750;27;19946;-64
2023/06/18 12:35:54;;;;;;;;;;;;;;;;;;5137742;27;20374;-65
2023/06/18 12:38:21;;;;;;;;;;;;;;;;;;5138058;27;19907;-65
2023/06/18 12:40:47;;;;;;;;;;;;;;;;;;5135916;27;19915;-65
2023/06/18 12:43:13;;;;;;;;;;;;;;;;;;5137723;27;19998;-64
2023/06/18 12:45:40;;;;;;;;;;;;;;;;;;5137457;27;19952;-65
2023/06/18 12:48:06;;;;;;;;;;;;;;;;;;5137043;27;19994;-65
2023/06/18 12:50:32;;;;;;;;;;;;;;;;;;5137516;27;19907;-64
2023/06/18 12:52:58;;;;;;;;;;;;;;;;;;5137075;27;19953;-64
2023/06/18 12:55:24;;;;;;;;;;;;;;;;;;5136173;27;19998;-64
2023/06/18 12:57:50;;;;;;;;;;;;;;;;;;5137282;27;19941;-64
2023/06/18 13:00:16;;;;;;;;;;;;;;;;;;5136719;27;20359;-64
2023/06/18 13:02:42;;;;;;;;;;;;;;;;;;5137209;27;19911;-64
2023/06/18 13:05:08;;;;;;;;;;;;;;;;;;5137224;27;19913;-63
2023/06/18 13:07:34;;;;;;;;;;;;;;;;;;5136767;27;20324;-64
2023/06/18 13:10:00;;;;;;;;;;;;;;;;;;5137042;27;19907;-64
2023/06/18 13:12:26;;;;;;;;;;;;;;;;;;5137214;27;19914;-64
2023/06/18 13:14:52;;;;;;;;;;;;;;;;;;5136614;27;19908;-64
2023/06/18 13:17:18;;;;;;;;;;;;;;;;;;5136995;27;19914;-65
2023/06/18 13:19:44;;;;;;;;;;;;;;;;;;5136920;27;20002;-65
2023/06/18 13:22:10;;;;;;;;;;;;;;;;;;5136197;27;19919;-65
2023/06/18 13:24:36;;;;;;;;;;;;;;;;;;5136825;27;20289;-64
2023/06/18 13:27:02;;;;;;;;;;;;;;;;;;5136802;27;20348;-65
2023/06/18 13:29:28;;;;;;;;;;;;;;;;;;5136335;27;19961;-64
2023/06/18 13:31:54;;;;;;;;;;;;;;;;;;5136305;27;19908;-65
2023/06/18 13:34:20;;;;;;;;;;;;;;;;;;5136916;27;19908;-65
2023/06/18 13:36:48;;;;;;;;;;;;;;;;;;5136177;27;20352;-63
2023/06/18 13:39:13;;;;;;;;;;;;;;;;;;5136441;27;19960;-64
2023/06/18 13:41:39;;;;;;;;;;;;;;;;;;5136375;27;19994;-64
2023/06/18 13:44:06;;;;;;;;;;;;;;;;;;5134874;27;20007;-64
2023/06/18 13:46:33;;;;;;;;;;;;;;;;;;5135100;27;19983;-63
2023/06/18 13:48:59;;;;;;;;;;;;;;;;;;5136248;27;19907;-63
2023/06/18 13:51:25;;;;;;;;;;;;;;;;;;5135860;27;19977;-63
2023/06/18 13:53:51;;;;;;;;;;;;;;;;;;5136219;27;20359;-63
2023/06/18 13:56:17;;;;;;;;;;;;;;;;;;5135731;27;19908;-63
2023/06/18 13:58:43;;;;;;;;;;;;;;;;;;5136418;27;19908;-63
2023/06/18 14:01:09;;;;;;;;;;;;;;;;;;5135972;27;19966;-63
2023/06/18 14:03:34;;;;;;;;;;;;;;;;;;5135524;27;19911;-63
2023/06/18 14:06:00;;;;;;;;;;;;;;;;;;5135949;27;19912;-63
2023/06/18 14:08:26;;;;;;;;;;;;;;;;;;5135895;27;19953;-63
2023/06/18 14:10:53;;;;;;;;;;;;;;;;;;5135483;27;19915;-63
2023/06/18 14:13:19;;;;;;;;;;;;;;;;;;5135891;27;20399;-63
2023/06/18 14:15:47;;;;;;;;;;;;;;;;;;5135795;27;19915;-63
2023/06/18 14:18:13;;;;;;;;;;;;;;;;;;5134011;27;20386;-63
2023/06/18 14:20:41;;;;;;;;;;;;;;;;;;5135411;27;20008;-63
2023/06/18 14:23:07;;;;;;;;;;;;;;;;;;5135588;27;20378;-63
2023/06/18 14:25:33;;;;;;;;;;;;;;;;;;5135174;27;19908;-64
2023/06/18 14:27:59;;;;;;;;;;;;;;;;;;5135404;27;19914;-63
2023/06/18 14:30:25;;;;;;;;;;;;;;;;;;5135423;27;19916;-63
2023/06/18 14:32:51;;;;;;;;;;;;;;;;;;5135146;27;19972;-63
2023/06/18 14:35:17;;;;;;;;;;;;;;;;;;5135384;27;19914;-63
2023/06/18 14:40:11;;;;;;;;;;;;;;;;;;5091086;27;19916;-63
2023/06/18 14:42:37;;;;;;;;;;;;;;;;;;5091481;28;19913;-64
2023/06/18 14:45:02;;;;;;;;;;;;;;;;;;5091274;28;19915;-64
2023/06/18 14:47:28;;;;;;;;;;;;;;;;;;5090933;28;20364;-64
2023/06/18 14:49:55;;;;;;;;;;;;;;;;;;5091235;28;19908;-64
2023/06/18 14:52:21;;;;;;;;;;;;;;;;;;5091148;28;20018;-64
2023/06/18 14:54:47;;;;;;;;;;;;;;;;;;5090809;28;19908;-64
2023/06/18 14:57:24;;;;;;;;;;;;;;;;;;5111794;27;19922;-64
2023/06/18 15:00:33;;;;;;;;;;;;;;;;;;5091298;27;19912;-63
2023/06/18 15:03:53;;;;;;;;;;;;;;;;;;5111778;27;19923;-64
2023/06/18 15:06:19;;;;;;;;;;;;;;;;;;5111713;28;19999;-63
2023/06/18 15:08:45;;;;;;;;;;;;;;;;;;5109945;28;20372;-63
2023/06/18 15:11:11;;;;;;;;;;;;;;;;;;5111578;28;19914;-63
2023/06/18 15:13:37;;;;;;;;;;;;;;;;;;5111387;28;19943;-64
2023/06/18 15:16:03;;;;;;;;;;;;;;;;;;5110244;28;19912;-63
2023/06/18 15:18:29;;;;;;;;;;;;;;;;;;5111484;28;20332;-63
2023/06/18 15:20:55;;;;;;;;;;;;;;;;;;5111040;28;19979;-64
2023/06/18 15:23:21;;;;;;;;;;;;;;;;;;5111236;28;19920;-63
2023/06/18 15:25:47;;;;;;;;;;;;;;;;;;5110074;28;19915;-64
2023/06/18 15:28:13;;;;;;;;;;;;;;;;;;5109526;28;19912;-64
2023/06/18 15:30:39;;;;;;;;;;;;;;;;;;5109970;28;20000;-64
2023/06/18 15:33:05;;;;;;;;;;;;;;;;;;5111228;28;19908;-64
2023/06/18 15:35:31;;;;;;;;;;;;;;;;;;5110711;28;19912;-64
2023/06/18 15:38:00;;;;;;;;;;;;;;;;;;5111134;28;20283;-64
2023/06/18 15:40:26;;;;;;;;;;;;;;;;;;5111322;28;20004;-64
2023/06/18 15:42:52;;;;;;;;;;;;;;;;;;5109497;28;20022;-64
2023/06/18 15:45:17;;;;;;;;;;;;;;;;;;5111109;28;19909;-64
2023/06/18 15:47:43;;;;;;;;;;;;;;;;;;5110979;28;19914;-64
2023/06/18 15:50:10;;;;;;;;;;;;;;;;;;5110518;28;19958;-64
2023/06/18 15:52:36;;;;;;;;;;;;;;;;;;5111141;28;19916;-64
2023/06/18 15:55:01;;;;;;;;;;;;;;;;;;5110856;28;19908;-64
2023/06/18 15:57:27;;;;;;;;;;;;;;;;;;5110402;28;19908;-64
2023/06/18 15:59:53;;;;;;;;;;;;;;;;;;5110775;28;19908;-64
2023/06/18 16:02:19;;;;;;;;;;;;;;;;;;5110309;28;19920;-64
2023/06/18 16:04:45;;;;;;;;;;;;;;;;;;5110190;28;20037;-64
2023/06/18 16:07:11;;;;;;;;;;;;;;;;;;5110549;28;19908;-64
2023/06/18 16:09:37;;;;;;;;;;;;;;;;;;5109187;28;19908;-64
2023/06/18 16:12:03;;;;;;;;;;;;;;;;;;5110002;28;19912;-65
2023/06/18 16:14:29;;;;;;;;;;;;;;;;;;5099639;28;19985;-64
2023/06/18 16:16:55;;;;;;;;;;;;;;;;;;5095087;28;19908;-64
2023/06/18 16:19:21;;;;;;;;;;;;;;;;;;5096826;28;19995;-64
2023/06/18 16:28:39;;;;;;;;;;;;;;;;;;5111918;27;20386;-63
2023/06/18 16:31:05;;;;;;;;;;;;;;;;;;5111464;28;20007;-63
2023/06/18 16:33:31;;;;;;;;;;;;;;;;;;5110436;28;19908;-63
2023/06/18 16:35:57;;;;;;;;;;;;;;;;;;5111615;28;19912;-65
2023/06/18 16:38:23;;;;;;;;;;;;;;;;;;5111447;28;19954;-65
2023/06/18 16:42:22;;;;;;;;;;;;;;;;;;5091791;27;19923;-63
2023/06/18 16:44:48;;;;;;;;;;;;;;;;;;5091273;28;20015;-64
2023/06/18 16:49:16;;;;;;;;;;;;;;;;;;5152896;27;19915;-63
2023/06/18 16:51:45;;;;;;;;;;;;;;;;;;5152798;27;20274;-63
2023/06/18 16:54:11;;;;;;;;;;;;;;;;;;5133866;27;20294;-63
2023/06/18 16:57:54;;;;;;;;;;;;;;;;;;5111742;27;19912;-66
2023/06/18 17:00:20;;;;;;;;;;;;;;;;;;5110072;28;19912;-63
2023/06/18 17:03:43;;;;;;;;;;;;;;;;;;5091635;28;19917;-64
2023/06/18 17:07:29;;;;;;;;;;;;;;;;;;5111263;27;20279;-64
2023/06/18 17:13:43;;;;;;;;;;;;;;;;;;5091494;27;19913;-63
2023/06/18 17:16:09;;;;;;;;;;;;;;;;;;5090054;28;20346;-65
2023/06/18 17:18:35;;;;;;;;;;;;;;;;;;5091339;28;19909;-63
2023/06/18 17:23:13;;;;;;;;;;;;;;;;;;5112602;27;20268;-63
2023/06/18 17:25:39;;;;;;;;;;;;;;;;;;5111655;28;20007;-64
2023/06/18 17:30:06;;;;;;;;;;;;;;;;;;5112303;27;19912;-63
2023/06/18 17:32:32;;;;;;;;;;;;;;;;;;5111624;28;20030;-64
2023/06/18 17:34:58;;;;;;;;;;;;;;;;;;5111398;28;19916;-64
2023/06/18 17:37:24;;;;;;;;;;;;;;;;;;5110283;28;19908;-64
2023/06/18 17:39:50;;;;;;;;;;;;;;;;;;5111489;28;20006;-65
2023/06/18 17:43:30;;;;;;;;;;;;;;;;;;5090862;27;19919;-63
2023/06/18 17:47:32;;;;;;;;;;;;;;;;;;5112203;27;19916;-65
2023/06/18 17:52:15;;;;;;;;;;;;;;;;;;5111911;27;19916;-66
2023/06/18 17:56:18;;;;;;;;;;;;;;;;;;5152929;27;19911;-66
2023/06/18 17:59:47;;;;;;;;;;;;;;;;;;5071892;28;19913;-63
2023/06/18 18:02:15;;;;;;;;;;;;;;;;;;5071223;28;19992;-63
2023/06/18 18:06:12;;;;;;;;;;;;;;;;;;5111862;27;19912;-65
2023/06/18 18:09:05;;;;;;;;;;;;;;;;;;5112407;27;19916;-64
2023/06/18 18:11:31;;;;;;;;;;;;;;;;;;5111301;28;20350;-63
2023/06/18 18:13:57;;;;;;;;;;;;;;;;;;5111638;28;19908;-63
2023/06/18 18:16:23;;;;;;;;;;;;;;;;;;5111157;28;19908;-63
2023/06/18 18:18:49;;;;;;;;;;;;;;;;;;5111538;28;20351;-63
2023/06/18 18:21:15;;;;;;;;;;;;;;;;;;5111494;28;19933;-63
2023/06/18 18:27:41;;;;;;;;;;;;;;;;;;5132577;27;20427;-63
2023/06/18 18:33:24;;;;;;;;;;;;;;;;;;5153280;27;20349;-63
2023/06/18 18:35:50;;;;;;;;;;;;;;;;;;5152913;27;20462;-63
2023/06/18 18:38:16;;;;;;;;;;;;;;;;;;5152531;27;19914;-63
2023/06/18 18:40:43;;;;;;;;;;;;;;;;;;5152777;27;20006;-66
2023/06/18 18:43:09;;;;;;;;;;;;;;;;;;5152782;27;19911;-63
2023/06/18 18:45:35;;;;;;;;;;;;;;;;;;5152432;27;19915;-63
2023/06/18 18:51:28;;;;;;;;;;;;;;;;;;5091838;27;19916;-65
2023/06/18 18:53:54;;;;;;;;;;;;;;;;;;5090946;28;19916;-63
2023/06/18 18:56:20;;;;;;;;;;;;;;;;;;5089985;28;19930;-63
2023/06/18 18:58:48;;;;;;;;;;;;;;;;;;5090920;28;19909;-64
2023/06/18 19:01:14;;;;;;;;;;;;;;;;;;5091166;28;19912;-63
2023/06/18 19:03:40;;;;;;;;;;;;;;;;;;5089797;28;19961;-64
2023/06/18 19:06:38;;;;;;;;;;;;;;;;;;5111919;27;19922;-63
2023/06/18 19:09:04;;;;;;;;;;;;;;;;;;5111611;28;20002;-63
2023/06/18 19:12:24;;;;;;;;;;;;;;;;;;5153217;27;20397;-65
2023/06/18 19:14:50;;;;;;;;;;;;;;;;;;5152521;27;19912;-65
2023/06/18 19:17:16;;;;;;;;;;;;;;;;;;5134305;27;19929;-63
2023/06/18 19:19:42;;;;;;;;;;;;;;;;;;5152435;27;19951;-63
2023/06/18 19:23:10;;;;;;;;;;;;;;;;;;5092196;27;19923;-63
2023/06/18 19:26:57;;;;;;;;;;;;;;;;;;5111625;27;19912;-64
2023/06/18 19:29:23;;;;;;;;;;;;;;;;;;5111741;28;20015;-63
2023/06/18 19:37:04;;;;;;;;;;;;;;;;;;5112079;27;19916;-64
2023/06/18 19:43:36;;;;;;;;;;;;;;;;;;5091482;27;19918;-62
2023/06/18 19:46:02;;;;;;;;;;;;;;;;;;5091282;28;19999;-65
2023/06/18 19:54:03;;;;;;;;;;;;;;;;;;5112417;27;19920;-64
2023/06/18 19:56:29;;;;;;;;;;;;;;;;;;5111357;28;20007;-65
2023/06/18 19:58:56;;;;;;;;;;;;;;;;;;5110349;28;19912;-64
2023/06/18 20:01:22;;;;;;;;;;;;;;;;;;5111707;28;20328;-66
2023/06/18 20:04:46;;;;;;;;;;;;;;;;;;5111783;27;20371;-64
2023/06/18 20:07:12;;;;;;;;;;;;;;;;;;5111814;28;20011;-64
2023/06/18 20:15:46;;;;;;;;;;;;;;;;;;5112183;27;19912;-64
2023/06/18 20:19:32;;;;;;;;;;;;;;;;;;5153007;27;19916;-64
2023/06/18 20:21:58;;;;;;;;;;;;;;;;;;5152913;27;19911;-64
2023/06/18 20:24:24;;;;;;;;;;;;;;;;;;5152511;27;19952;-64
2023/06/18 20:28:12;;;;;;;;;;;;;;;;;;5153083;27;19918;-63
2023/06/18 20:30:38;;;;;;;;;;;;;;;;;;5152449;27;19911;-63
2023/06/18 20:33:05;;;;;;;;;;;;;;;;;;5152802;27;19911;-64
2023/06/18 20:35:31;;;;;;;;;;;;;;;;;;5153141;27;19914;-63
2023/06/18 20:39:28;;;;;;;;;;;;;;;;;;5091827;27;19912;-66
2023/06/18 20:41:54;;;;;;;;;;;;;;;;;;5091462;28;20003;-65
2023/06/18 20:44:20;;;;;;;;;;;;;;;;;;5090959;28;19938;-65
2023/06/18 20:46:46;;;;;;;;;;;;;;;;;;5090104;28;20424;-65
2023/06/18 20:50:34;;;;;;;;;;;;;;;;;;5112653;27;19922;-65
2023/06/18 20:55:03;;;;;;;;;;;;;;;;;;5112163;27;20406;-65
2023/06/18 20:58:23;;;;;;;;;;;;;;;;;;5131917;27;20306;-63
2023/06/18 21:06:49;;;;;;;;;;;;;;;;;;5111587;27;20384;-64
2023/06/18 21:10:19;;;;;;;;;;;;;;;;;;5112072;27;19922;-63
2023/06/18 21:13:21;;;;;;;;;;;;;;;;;;5111653;27;19934;-64